sensor_id;sensor_type;location;lat;lon;timestamp;pressure;altitude;pressure_sealevel;temperature;humidity
22651;BME280;11492;42.646;23.400;2023-02-28T00:01:20;95510.75;;;7.56;83.86
22651;BME280;11492;42.646;23.400;2023-02-28T00:03:46;95521.53;;;7.60;83.97
22651;BME280;11492;42.646;23.400;2023-02-28T00:06:11;95517.19;;;7.60;83.93
22651;BME280;11492;42.646;23.400;2023-02-28T00:08:38;95509.03;;;7.65;83.83
22651;BME280;11492;42.646;23.400;2023-02-28T00:11:06;95502.28;;;7.64;84.16
22651;BME280;11492;42.646;23.400;2023-02-28T00:13:34;95522.03;;;7.63;83.99
22651;BME280;11492;42.646;23.400;2023-02-28T00:16:09;95517.28;;;7.51;84.01
22651;BME280;11492;42.646;23.400;2023-02-28T00:18:34;95522.63;;;7.57;85.17
22651;BME280;11492;42.646;23.400;2023-02-28T00:21:00;95508.31;;;7.55;84.87
22651;BME280;11492;42.646;23.400;2023-02-28T00:23:27;95514.94;;;7.57;85.33
22651;BME280;11492;42.646;23.400;2023-02-28T00:25:53;95514.50;;;7.62;85.20
22651;BME280;11492;42.646;23.400;2023-02-28T00:28:19;95517.19;;;7.60;84.96
22651;BME280;11492;42.646;23.400;2023-02-28T00:30:44;95516.97;;;7.71;84.89
22651;BME280;11492;42.646;23.400;2023-02-28T00:33:10;95522.59;;;7.74;85.47
22651;BME280;11492;42.646;23.400;2023-02-28T00:35:35;95521.53;;;7.77;85.14
22651;BME280;11492;42.646;23.400;2023-02-28T00:38:01;95527.09;;;7.72;84.86
22651;BME280;11492;42.646;23.400;2023-02-28T00:40:27;95530.41;;;7.65;84.87
22651;BME280;11492;42.646;23.400;2023-02-28T00:42:53;95511.00;;;7.70;84.85
22651;BME280;11492;42.646;23.400;2023-02-28T00:45:18;95507.72;;;7.78;85.79
22651;BME280;11492;42.646;23.400;2023-02-28T00:47:44;95500.72;;;7.88;85.56
22651;BME280;11492;42.646;23.400;2023-02-28T00:50:12;95503.63;;;7.93;85.16
22651;BME280;11492;42.646;23.400;2023-02-28T00:52:37;95496.84;;;7.92;84.93
22651;BME280;11492;42.646;23.400;2023-02-28T00:55:03;95497.97;;;7.89;84.58
22651;BME280;11492;42.646;23.400;2023-02-28T00:57:29;95508.41;;;7.88;84.74
22651;BME280;11492;42.646;23.400;2023-02-28T00:59:54;95516.25;;;7.86;84.48
22651;BME280;11492;42.646;23.400;2023-02-28T01:02:21;95514.16;;;7.82;84.36
22651;BME280;11492;42.646;23.400;2023-02-28T01:04:47;95510.91;;;7.80;84.36
22651;BME280;11492;42.646;23.400;2023-02-28T01:07:13;95498.50;;;7.75;84.40
22651;BME280;11492;42.646;23.400;2023-02-28T01:09:40;95523.16;;;7.86;84.35
22651;BME280;11492;42.646;23.400;2023-02-28T01:12:07;95518.19;;;7.84;83.89
22651;BME280;11492;42.646;23.400;2023-02-28T01:14:33;95520.09;;;7.82;83.81
22651;BME280;11492;42.646;23.400;2023-02-28T01:16:59;95507.75;;;7.86;83.91
22651;BME280;11492;42.646;23.400;2023-02-28T01:19:25;95488.91;;;7.77;83.71
22651;BME280;11492;42.646;23.400;2023-02-28T01:21:50;95509.97;;;7.81;83.95
22651;BME280;11492;42.646;23.400;2023-02-28T01:24:15;95506.81;;;7.87;83.55
22651;BME280;11492;42.646;23.400;2023-02-28T01:26:41;95499.69;;;7.81;83.82
22651;BME280;11492;42.646;23.400;2023-02-28T01:29:06;95496.19;;;7.82;83.45
22651;BME280;11492;42.646;23.400;2023-02-28T01:31:32;95502.41;;;7.79;83.44
22651;BME280;11492;42.646;23.400;2023-02-28T01:33:57;95493.25;;;7.77;83.39
22651;BME280;11492;42.646;23.400;2023-02-28T01:36:24;95490.97;;;7.74;83.60
22651;BME280;11492;42.646;23.400;2023-02-28T01:38:50;95494.19;;;7.76;83.79
22651;BME280;11492;42.646;23.400;2023-02-28T01:41:22;95508.94;;;7.74;83.55
22651;BME280;11492;42.646;23.400;2023-02-28T01:46:14;95510.88;;;7.72;83.59
22651;BME280;11492;42.646;23.400;2023-02-28T01:48:56;95508.91;;;7.66;83.42
22651;BME280;11492;42.646;23.400;2023-02-28T01:54:00;95508.53;;;7.61;83.79
22651;BME280;11492;42.646;23.400;2023-02-28T01:56:29;95506.09;;;7.60;83.35
22651;BME280;11492;42.646;23.400;2023-02-28T01:58:56;95492.03;;;7.46;83.41
22651;BME280;11492;42.646;23.400;2023-02-28T02:01:23;95501.78;;;7.43;83.43
22651;BME280;11492;42.646;23.400;2023-02-28T02:03:54;95505.69;;;7.47;83.41
22651;BME280;11492;42.646;23.400;2023-02-28T02:06:22;95506.78;;;7.45;82.65
22651;BME280;11492;42.646;23.400;2023-02-28T02:08:48;95502.66;;;7.34;82.81
22651;BME280;11492;42.646;23.400;2023-02-28T02:11:17;95505.56;;;7.31;83.26
22651;BME280;11492;42.646;23.400;2023-02-28T02:16:52;95509.22;;;7.29;83.96
22651;BME280;11492;42.646;23.400;2023-02-28T02:30:08;95503.19;;;7.38;86.11
22651;BME280;11492;42.646;23.400;2023-02-28T02:33:09;95505.47;;;7.23;86.33
22651;BME280;11492;42.646;23.400;2023-02-28T02:43:24;95516.69;;;7.40;86.55
22651;BME280;11492;42.646;23.400;2023-02-28T02:45:56;95514.00;;;7.41;85.57
22651;BME280;11492;42.646;23.400;2023-02-28T02:48:27;95517.00;;;7.37;86.45
22651;BME280;11492;42.646;23.400;2023-02-28T02:50:57;95513.09;;;7.33;85.89
22651;BME280;11492;42.646;23.400;2023-02-28T02:53:48;95515.59;;;7.42;85.49
22651;BME280;11492;42.646;23.400;2023-02-28T02:56:19;95518.44;;;7.39;85.60
22651;BME280;11492;42.646;23.400;2023-02-28T02:58:48;95526.69;;;7.43;85.47
22651;BME280;11492;42.646;23.400;2023-02-28T03:01:18;95528.13;;;7.45;85.58
22651;BME280;11492;42.646;23.400;2023-02-28T03:04:04;95538.94;;;7.48;85.35
22651;BME280;11492;42.646;23.400;2023-02-28T03:06:31;95547.31;;;7.50;85.09
22651;BME280;11492;42.646;23.400;2023-02-28T03:08:56;95540.03;;;7.46;85.59
22651;BME280;11492;42.646;23.400;2023-02-28T03:11:22;95548.25;;;7.49;85.25
22651;BME280;11492;42.646;23.400;2023-02-28T03:16:36;95559.94;;;7.61;85.76
22651;BME280;11492;42.646;23.400;2023-02-28T03:24:45;95565.34;;;7.58;84.79
22651;BME280;11492;42.646;23.400;2023-02-28T03:27:41;95559.63;;;7.47;84.09
22651;BME280;11492;42.646;23.400;2023-02-28T03:32:42;95570.63;;;7.40;83.44
22651;BME280;11492;42.646;23.400;2023-02-28T03:35:15;95575.75;;;7.40;83.31
22651;BME280;11492;42.646;23.400;2023-02-28T03:37:48;95572.53;;;7.38;83.75
22651;BME280;11492;42.646;23.400;2023-02-28T03:40:23;95574.94;;;7.39;84.10
22651;BME280;11492;42.646;23.400;2023-02-28T03:42:55;95582.00;;;7.37;83.25
22651;BME280;11492;42.646;23.400;2023-02-28T03:45:26;95579.59;;;7.36;84.21
22651;BME280;11492;42.646;23.400;2023-02-28T03:48:05;95584.41;;;7.39;83.62
22651;BME280;11492;42.646;23.400;2023-02-28T03:50:41;95577.47;;;7.48;84.36
22651;BME280;11492;42.646;23.400;2023-02-28T03:53:18;95585.09;;;7.58;83.63
22651;BME280;11492;42.646;23.400;2023-02-28T03:56:17;95584.88;;;7.51;84.57
22651;BME280;11492;42.646;23.400;2023-02-28T03:58:53;95587.59;;;7.67;83.68
22651;BME280;11492;42.646;23.400;2023-02-28T04:01:27;95586.34;;;7.71;83.63
22651;BME280;11492;42.646;23.400;2023-02-28T04:03:54;95579.94;;;7.75;83.58
22651;BME280;11492;42.646;23.400;2023-02-28T04:06:22;95580.09;;;7.73;83.34
22651;BME280;11492;42.646;23.400;2023-02-28T04:08:48;95580.31;;;7.63;83.33
22651;BME280;11492;42.646;23.400;2023-02-28T04:13:39;95577.56;;;7.56;83.32
22651;BME280;11492;42.646;23.400;2023-02-28T04:16:08;95580.97;;;7.47;83.05
22651;BME280;11492;42.646;23.400;2023-02-28T04:18:37;95584.19;;;7.49;83.26
22651;BME280;11492;42.646;23.400;2023-02-28T04:21:03;95576.72;;;7.39;83.68
22651;BME280;11492;42.646;23.400;2023-02-28T04:23:30;95582.75;;;7.47;84.03
22651;BME280;11492;42.646;23.400;2023-02-28T04:25:55;95590.63;;;7.46;83.92
22651;BME280;11492;42.646;23.400;2023-02-28T04:28:21;95578.41;;;7.47;84.31
22651;BME280;11492;42.646;23.400;2023-02-28T04:30:46;95573.56;;;7.45;84.11
22651;BME280;11492;42.646;23.400;2023-02-28T04:33:11;95574.09;;;7.48;84.00
22651;BME280;11492;42.646;23.400;2023-02-28T04:35:37;95585.47;;;7.46;83.97
22651;BME280;11492;42.646;23.400;2023-02-28T04:38:02;95576.88;;;7.37;84.46
22651;BME280;11492;42.646;23.400;2023-02-28T04:40:28;95588.59;;;7.40;84.26
22651;BME280;11492;42.646;23.400;2023-02-28T04:42:53;95590.38;;;7.39;84.38
22651;BME280;11492;42.646;23.400;2023-02-28T04:45:18;95596.75;;;7.35;84.54
22651;BME280;11492;42.646;23.400;2023-02-28T04:47:44;95597.91;;;7.23;84.15
22651;BME280;11492;42.646;23.400;2023-02-28T04:50:10;95603.19;;;7.22;84.33
22651;BME280;11492;42.646;23.400;2023-02-28T04:52:35;95605.75;;;7.22;84.93
22651;BME280;11492;42.646;23.400;2023-02-28T04:55:01;95604.16;;;7.21;84.80
22651;BME280;11492;42.646;23.400;2023-02-28T04:57:27;95600.56;;;7.14;85.50
22651;BME280;11492;42.646;23.400;2023-02-28T04:59:52;95603.78;;;7.16;84.66
22651;BME280;11492;42.646;23.400;2023-02-28T05:02:18;95597.97;;;7.14;85.17
22651;BME280;11492;42.646;23.400;2023-02-28T05:04:43;95610.81;;;7.14;84.91
22651;BME280;11492;42.646;23.400;2023-02-28T05:07:09;95608.25;;;7.14;85.21
22651;BME280;11492;42.646;23.400;2023-02-28T05:09:35;95603.41;;;7.11;85.11
22651;BME280;11492;42.646;23.400;2023-02-28T05:12:00;95612.31;;;7.07;85.55
22651;BME280;11492;42.646;23.400;2023-02-28T05:14:25;95610.06;;;7.04;85.64
22651;BME280;11492;42.646;23.400;2023-02-28T05:16:51;95625.72;;;7.01;85.27
22651;BME280;11492;42.646;23.400;2023-02-28T05:19:16;95617.06;;;7.02;85.47
22651;BME280;11492;42.646;23.400;2023-02-28T05:21:53;95616.28;;;7.02;85.62
22651;BME280;11492;42.646;23.400;2023-02-28T05:24:19;95617.88;;;7.03;85.50
22651;BME280;11492;42.646;23.400;2023-02-28T05:26:49;95622.22;;;7.02;85.58
22651;BME280;11492;42.646;23.400;2023-02-28T05:29:16;95628.69;;;7.06;85.05
22651;BME280;11492;42.646;23.400;2023-02-28T05:31:41;95632.06;;;7.07;85.56
22651;BME280;11492;42.646;23.400;2023-02-28T05:34:06;95624.94;;;7.01;85.44
22651;BME280;11492;42.646;23.400;2023-02-28T05:36:32;95633.53;;;7.09;85.39
22651;BME280;11492;42.646;23.400;2023-02-28T05:38:58;95630.53;;;7.14;85.46
22651;BME280;11492;42.646;23.400;2023-02-28T05:41:23;95637.31;;;7.15;85.42
22651;BME280;11492;42.646;23.400;2023-02-28T05:43:49;95644.53;;;7.19;85.55
22651;BME280;11492;42.646;23.400;2023-02-28T05:46:15;95639.94;;;7.22;84.93
22651;BME280;11492;42.646;23.400;2023-02-28T05:48:42;95638.88;;;7.25;84.75
22651;BME280;11492;42.646;23.400;2023-02-28T05:51:08;95643.84;;;7.26;84.82
22651;BME280;11492;42.646;23.400;2023-02-28T05:53:34;95649.75;;;7.36;85.00
22651;BME280;11492;42.646;23.400;2023-02-28T05:56:00;95650.63;;;7.45;85.38
22651;BME280;11492;42.646;23.400;2023-02-28T05:58:26;95664.78;;;7.48;84.64
22651;BME280;11492;42.646;23.400;2023-02-28T06:00:56;95650.50;;;7.46;83.76
22651;BME280;11492;42.646;23.400;2023-02-28T06:03:23;95643.44;;;7.48;83.38
22651;BME280;11492;42.646;23.400;2023-02-28T06:05:49;95655.06;;;7.52;83.74
22651;BME280;11492;42.646;23.400;2023-02-28T06:08:15;95645.47;;;7.45;83.72
22651;BME280;11492;42.646;23.400;2023-02-28T06:10:41;95635.50;;;7.42;83.83
22651;BME280;11492;42.646;23.400;2023-02-28T06:13:06;95650.34;;;7.47;84.18
22651;BME280;11492;42.646;23.400;2023-02-28T06:15:32;95647.03;;;7.55;84.38
22651;BME280;11492;42.646;23.400;2023-02-28T06:17:58;95642.44;;;7.58;84.33
22651;BME280;11492;42.646;23.400;2023-02-28T06:20:25;95642.66;;;7.65;84.08
22651;BME280;11492;42.646;23.400;2023-02-28T06:22:54;95651.41;;;7.71;84.19
22651;BME280;11492;42.646;23.400;2023-02-28T06:25:21;95646.69;;;7.67;84.05
22651;BME280;11492;42.646;23.400;2023-02-28T06:27:47;95647.44;;;7.77;83.94
22651;BME280;11492;42.646;23.400;2023-02-28T06:30:13;95653.59;;;7.84;83.41
22651;BME280;11492;42.646;23.400;2023-02-28T06:32:39;95657.63;;;7.86;82.83
22651;BME280;11492;42.646;23.400;2023-02-28T06:35:04;95656.53;;;7.89;82.66
22651;BME280;11492;42.646;23.400;2023-02-28T06:37:31;95654.13;;;7.87;82.75
22651;BME280;11492;42.646;23.400;2023-02-28T06:39:56;95655.44;;;7.91;82.79
22651;BME280;11492;42.646;23.400;2023-02-28T06:42:23;95655.31;;;7.93;82.43
22651;BME280;11492;42.646;23.400;2023-02-28T06:44:57;95656.75;;;7.95;82.68
22651;BME280;11492;42.646;23.400;2023-02-28T06:47:23;95658.09;;;7.99;83.21
22651;BME280;11492;42.646;23.400;2023-02-28T06:49:49;95656.72;;;8.04;82.96
22651;BME280;11492;42.646;23.400;2023-02-28T06:52:15;95655.59;;;8.07;82.65
22651;BME280;11492;42.646;23.400;2023-02-28T06:54:40;95668.53;;;8.15;82.89
22651;BME280;11492;42.646;23.400;2023-02-28T06:57:06;95667.50;;;8.25;82.90
22651;BME280;11492;42.646;23.400;2023-02-28T06:59:32;95663.00;;;8.27;82.36
22651;BME280;11492;42.646;23.400;2023-02-28T07:01:58;95657.84;;;8.27;81.69
22651;BME280;11492;42.646;23.400;2023-02-28T07:04:23;95666.97;;;8.39;81.77
22651;BME280;11492;42.646;23.400;2023-02-28T07:06:49;95666.50;;;8.43;82.09
22651;BME280;11492;42.646;23.400;2023-02-28T07:09:14;95667.97;;;8.46;82.02
22651;BME280;11492;42.646;23.400;2023-02-28T07:11:40;95664.81;;;8.51;81.87
22651;BME280;11492;42.646;23.400;2023-02-28T07:14:06;95660.97;;;8.55;81.37
22651;BME280;11492;42.646;23.400;2023-02-28T07:16:32;95655.03;;;8.55;81.21
22651;BME280;11492;42.646;23.400;2023-02-28T07:18:58;95657.81;;;8.61;80.68
22651;BME280;11492;42.646;23.400;2023-02-28T07:21:24;95655.75;;;8.65;80.82
22651;BME280;11492;42.646;23.400;2023-02-28T07:23:49;95665.28;;;8.72;80.70
22651;BME280;11492;42.646;23.400;2023-02-28T07:26:16;95658.88;;;8.76;80.09
22651;BME280;11492;42.646;23.400;2023-02-28T07:28:43;95661.78;;;8.81;79.98
22651;BME280;11492;42.646;23.400;2023-02-28T07:31:10;95662.94;;;8.86;80.23
22651;BME280;11492;42.646;23.400;2023-02-28T07:33:37;95663.13;;;8.93;79.90
22651;BME280;11492;42.646;23.400;2023-02-28T07:36:05;95665.44;;;9.03;79.69
22651;BME280;11492;42.646;23.400;2023-02-28T07:38:34;95654.41;;;9.11;80.67
22651;BME280;11492;42.646;23.400;2023-02-28T07:41:00;95661.97;;;9.20;80.90
22651;BME280;11492;42.646;23.400;2023-02-28T07:43:26;95656.88;;;9.28;80.16
22651;BME280;11492;42.646;23.400;2023-02-28T07:45:51;95653.38;;;9.37;80.28
22651;BME280;11492;42.646;23.400;2023-02-28T07:48:17;95648.69;;;9.40;79.90
22651;BME280;11492;42.646;23.400;2023-02-28T07:50:42;95647.13;;;9.55;79.53
22651;BME280;11492;42.646;23.400;2023-02-28T07:53:07;95650.69;;;9.62;79.75
22651;BME280;11492;42.646;23.400;2023-02-28T07:55:33;95647.97;;;9.71;79.55
22651;BME280;11492;42.646;23.400;2023-02-28T07:57:58;95648.66;;;9.81;79.40
22651;BME280;11492;42.646;23.400;2023-02-28T08:00:24;95641.91;;;9.88;79.81
22651;BME280;11492;42.646;23.400;2023-02-28T08:02:50;95639.66;;;9.93;79.61
22651;BME280;11492;42.646;23.400;2023-02-28T08:05:16;95633.88;;;9.98;80.47
22651;BME280;11492;42.646;23.400;2023-02-28T08:07:42;95638.09;;;10.15;79.95
22651;BME280;11492;42.646;23.400;2023-02-28T08:10:08;95654.69;;;10.28;79.96
22651;BME280;11492;42.646;23.400;2023-02-28T08:12:35;95653.88;;;10.44;79.72
22651;BME280;11492;42.646;23.400;2023-02-28T08:15:00;95651.28;;;10.59;79.89
22651;BME280;11492;42.646;23.400;2023-02-28T08:17:26;95649.16;;;10.70;79.49
22651;BME280;11492;42.646;23.400;2023-02-28T08:19:51;95643.66;;;10.81;78.52
22651;BME280;11492;42.646;23.400;2023-02-28T08:22:16;95631.22;;;10.93;77.98
22651;BME280;11492;42.646;23.400;2023-02-28T08:24:42;95631.03;;;11.47;77.28
22651;BME280;11492;42.646;23.400;2023-02-28T08:27:08;95624.44;;;12.19;74.15
22651;BME280;11492;42.646;23.400;2023-02-28T08:29:34;95639.53;;;12.38;73.37
22651;BME280;11492;42.646;23.400;2023-02-28T08:32:01;95648.22;;;12.45;73.13
22651;BME280;11492;42.646;23.400;2023-02-28T08:34:26;95638.53;;;12.39;72.05
22651;BME280;11492;42.646;23.400;2023-02-28T08:36:52;95647.63;;;12.35;72.51
22651;BME280;11492;42.646;23.400;2023-02-28T08:39:18;95648.94;;;12.31;72.24
22651;BME280;11492;42.646;23.400;2023-02-28T08:41:45;95655.88;;;12.38;72.42
22651;BME280;11492;42.646;23.400;2023-02-28T08:44:10;95656.06;;;12.51;71.67
22651;BME280;11492;42.646;23.400;2023-02-28T08:46:36;95648.13;;;12.74;70.73
22651;BME280;11492;42.646;23.400;2023-02-28T08:49:01;95650.69;;;13.25;69.14
22651;BME280;11492;42.646;23.400;2023-02-28T08:51:28;95642.09;;;13.24;69.07
22651;BME280;11492;42.646;23.400;2023-02-28T08:53:57;95655.25;;;13.37;68.31
22651;BME280;11492;42.646;23.400;2023-02-28T08:56:23;95661.41;;;13.50;68.27
22651;BME280;11492;42.646;23.400;2023-02-28T08:58:49;95660.16;;;13.46;67.55
22651;BME280;11492;42.646;23.400;2023-02-28T09:01:17;95655.69;;;13.26;67.85
22651;BME280;11492;42.646;23.400;2023-02-28T09:03:44;95661.78;;;13.05;68.72
22651;BME280;11492;42.646;23.400;2023-02-28T09:06:12;95656.56;;;12.91;69.58
22651;BME280;11492;42.646;23.400;2023-02-28T09:08:37;95658.88;;;12.86;68.87
22651;BME280;11492;42.646;23.400;2023-02-28T09:11:03;95669.06;;;12.73;70.00
22651;BME280;11492;42.646;23.400;2023-02-28T09:13:29;95655.94;;;12.67;70.56
22651;BME280;11492;42.646;23.400;2023-02-28T09:15:58;95661.91;;;12.67;70.52
22651;BME280;11492;42.646;23.400;2023-02-28T09:18:24;95653.72;;;12.64;69.81
22651;BME280;11492;42.646;23.400;2023-02-28T09:20:50;95663.94;;;12.57;70.29
22651;BME280;11492;42.646;23.400;2023-02-28T09:23:16;95658.78;;;12.57;70.53
22651;BME280;11492;42.646;23.400;2023-02-28T09:25:54;95662.19;;;12.36;70.82
22651;BME280;11492;42.646;23.400;2023-02-28T09:28:20;95661.19;;;12.37;70.75
22651;BME280;11492;42.646;23.400;2023-02-28T09:30:51;95654.69;;;12.41;70.33
22651;BME280;11492;42.646;23.400;2023-02-28T09:33:18;95649.09;;;12.51;70.36
22651;BME280;11492;42.646;23.400;2023-02-28T09:35:47;95652.72;;;12.87;68.93
22651;BME280;11492;42.646;23.400;2023-02-28T09:38:12;95648.88;;;13.40;67.23
22651;BME280;11492;42.646;23.400;2023-02-28T09:40:59;95653.47;;;13.38;67.10
22651;BME280;11492;42.646;23.400;2023-02-28T09:43:33;95655.06;;;13.39;66.72
22651;BME280;11492;42.646;23.400;2023-02-28T09:46:25;95645.59;;;13.31;67.13
22651;BME280;11492;42.646;23.400;2023-02-28T09:48:53;95646.94;;;13.27;67.46
22651;BME280;11492;42.646;23.400;2023-02-28T09:53:53;95645.13;;;13.28;67.18
22651;BME280;11492;42.646;23.400;2023-02-28T09:56:25;95648.88;;;13.40;66.67
22651;BME280;11492;42.646;23.400;2023-02-28T09:59:02;95641.47;;;13.37;66.13
22651;BME280;11492;42.646;23.400;2023-02-28T10:01:39;95645.28;;;13.55;66.39
22651;BME280;11492;42.646;23.400;2023-02-28T10:06:58;95645.84;;;13.50;65.68
22651;BME280;11492;42.646;23.400;2023-02-28T10:09:27;95638.34;;;13.41;65.42
22651;BME280;11492;42.646;23.400;2023-02-28T10:11:59;95638.97;;;13.43;66.77
22651;BME280;11492;42.646;23.400;2023-02-28T10:14:28;95640.22;;;13.61;66.12
22651;BME280;11492;42.646;23.400;2023-02-28T10:16:57;95631.97;;;13.58;65.41
22651;BME280;11492;42.646;23.400;2023-02-28T10:19:32;95631.59;;;13.61;65.08
22651;BME280;11492;42.646;23.400;2023-02-28T10:22:08;95630.44;;;13.63;64.38
22651;BME280;11492;42.646;23.400;2023-02-28T10:24:47;95624.25;;;13.64;63.92
22651;BME280;11492;42.646;23.400;2023-02-28T10:27:23;95620.56;;;13.73;63.75
22651;BME280;11492;42.646;23.400;2023-02-28T10:29:51;95621.69;;;13.85;63.14
22651;BME280;11492;42.646;23.400;2023-02-28T10:32:19;95607.78;;;14.06;63.50
22651;BME280;11492;42.646;23.400;2023-02-28T10:35:06;95617.13;;;14.69;60.28
22651;BME280;11492;42.646;23.400;2023-02-28T10:37:42;95599.41;;;15.79;57.99
22651;BME280;11492;42.646;23.400;2023-02-28T10:40:32;95608.78;;;16.71;55.16
22651;BME280;11492;42.646;23.400;2023-02-28T10:43:05;95603.19;;;16.99;53.96
22651;BME280;11492;42.646;23.400;2023-02-28T10:45:32;95598.97;;;17.11;53.54
22651;BME280;11492;42.646;23.400;2023-02-28T10:56:15;95589.19;;;17.62;51.23
22651;BME280;11492;42.646;23.400;2023-02-28T11:01:24;95564.91;;;17.98;51.07
22651;BME280;11492;42.646;23.400;2023-02-28T11:03:50;95570.78;;;17.88;50.15
22651;BME280;11492;42.646;23.400;2023-02-28T11:06:22;95566.38;;;17.82;50.49
22651;BME280;11492;42.646;23.400;2023-02-28T11:11:14;95561.47;;;18.04;50.31
22651;BME280;11492;42.646;23.400;2023-02-28T11:13:44;95568.47;;;18.10;50.60
22651;BME280;11492;42.646;23.400;2023-02-28T11:16:12;95558.34;;;18.20;49.11
22651;BME280;11492;42.646;23.400;2023-02-28T11:18:47;95551.63;;;18.30;49.67
22651;BME280;11492;42.646;23.400;2023-02-28T11:21:25;95556.50;;;18.27;48.99
22651;BME280;11492;42.646;23.400;2023-02-28T11:24:00;95548.66;;;18.51;49.02
22651;BME280;11492;42.646;23.400;2023-02-28T11:26:42;95545.19;;;18.81;47.97
22651;BME280;11492;42.646;23.400;2023-02-28T11:29:12;95548.56;;;18.88;48.51
22651;BME280;11492;42.646;23.400;2023-02-28T11:31:41;95545.06;;;19.00;47.97
22651;BME280;11492;42.646;23.400;2023-02-28T11:34:36;95553.69;;;18.76;47.54
22651;BME280;11492;42.646;23.400;2023-02-28T11:37:04;95550.56;;;18.14;48.88
22651;BME280;11492;42.646;23.400;2023-02-28T11:39:32;95550.69;;;17.39;50.64
22651;BME280;11492;42.646;23.400;2023-02-28T11:42:07;95551.59;;;16.75;52.46
22651;BME280;11492;42.646;23.400;2023-02-28T11:45:03;95549.44;;;16.15;54.52
22651;BME280;11492;42.646;23.400;2023-02-28T12:04:21;95550.09;;;14.85;58.08
22651;BME280;11492;42.646;23.400;2023-02-28T12:10:00;95554.81;;;14.75;58.30
22651;BME280;11492;42.646;23.400;2023-02-28T12:31:37;95544.16;;;14.97;58.16
22651;BME280;11492;42.646;23.400;2023-02-28T12:34:38;95549.84;;;14.80;57.49
22651;BME280;11492;42.646;23.400;2023-02-28T12:37:08;95547.34;;;14.66;58.34
22651;BME280;11492;42.646;23.400;2023-02-28T12:39:41;95552.31;;;14.61;57.87
22651;BME280;11492;42.646;23.400;2023-02-28T12:42:19;95534.88;;;14.55;58.12
22651;BME280;11492;42.646;23.400;2023-02-28T12:44:55;95517.91;;;14.59;58.42
22651;BME280;11492;42.646;23.400;2023-02-28T12:47:22;95532.03;;;14.50;58.66
22651;BME280;11492;42.646;23.400;2023-02-28T12:50:02;95537.84;;;14.52;58.17
22651;BME280;11492;42.646;23.400;2023-02-28T12:55:15;95533.88;;;14.56;58.67
22651;BME280;11492;42.646;23.400;2023-02-28T13:00:34;95537.16;;;14.17;59.29
22651;BME280;11492;42.646;23.400;2023-02-28T13:03:33;95540.69;;;14.10;59.48
22651;BME280;11492;42.646;23.400;2023-02-28T13:06:08;95541.84;;;13.87;59.32
22651;BME280;11492;42.646;23.400;2023-02-28T13:11:27;95538.31;;;13.53;61.47
22651;BME280;11492;42.646;23.400;2023-02-28T13:13:58;95532.84;;;13.48;61.48
22651;BME280;11492;42.646;23.400;2023-02-28T13:16:24;95524.09;;;13.70;60.19
22651;BME280;11492;42.646;23.400;2023-02-28T13:18:50;95529.84;;;13.65;59.87
22651;BME280;11492;42.646;23.400;2023-02-28T13:26:22;95526.09;;;13.68;59.53
22651;BME280;11492;42.646;23.400;2023-02-28T13:31:18;95523.25;;;13.28;60.40
22651;BME280;11492;42.646;23.400;2023-02-28T13:38:53;95525.19;;;12.91;62.55
22651;BME280;11492;42.646;23.400;2023-02-28T13:44:20;95525.94;;;12.49;62.76
22651;BME280;11492;42.646;23.400;2023-02-28T13:52:02;95511.41;;;11.97;65.55
22651;BME280;11492;42.646;23.400;2023-02-28T14:06:08;95517.44;;;11.68;67.30
22651;BME280;11492;42.646;23.400;2023-02-28T14:08:36;95522.69;;;11.60;67.47
22651;BME280;11492;42.646;23.400;2023-02-28T14:11:06;95527.69;;;11.62;67.84
22651;BME280;11492;42.646;23.400;2023-02-28T14:13:44;95533.81;;;11.39;68.36
22651;BME280;11492;42.646;23.400;2023-02-28T14:16:14;95524.28;;;11.31;67.67
22651;BME280;11492;42.646;23.400;2023-02-28T14:18:57;95523.53;;;11.23;69.12
22651;BME280;11492;42.646;23.400;2023-02-28T14:21:29;95521.25;;;10.98;69.27
22651;BME280;11492;42.646;23.400;2023-02-28T14:29:51;95526.00;;;10.79;71.19
22651;BME280;11492;42.646;23.400;2023-02-28T14:32:32;95540.50;;;10.88;71.52
22651;BME280;11492;42.646;23.400;2023-02-28T14:35:20;95545.56;;;10.66;71.39
22651;BME280;11492;42.646;23.400;2023-02-28T14:37:47;95539.53;;;10.81;71.84
22651;BME280;11492;42.646;23.400;2023-02-28T14:40:21;95543.50;;;10.61;72.38
22651;BME280;11492;42.646;23.400;2023-02-28T14:42:58;95531.84;;;10.65;72.08
22651;BME280;11492;42.646;23.400;2023-02-28T14:45:28;95534.72;;;10.78;71.06
22651;BME280;11492;42.646;23.400;2023-02-28T14:47:56;95528.88;;;10.84;71.40
22651;BME280;11492;42.646;23.400;2023-02-28T14:50:36;95531.78;;;10.89;71.66
22651;BME280;11492;42.646;23.400;2023-02-28T14:53:02;95534.13;;;10.68;71.22
22651;BME280;11492;42.646;23.400;2023-02-28T14:55:31;95539.59;;;10.73;70.85
22651;BME280;11492;42.646;23.400;2023-02-28T14:58:05;95540.72;;;10.70;71.26
22651;BME280;11492;42.646;23.400;2023-02-28T15:00:35;95529.25;;;10.73;70.93
22651;BME280;11492;42.646;23.400;2023-02-28T15:03:22;95540.88;;;10.69;71.56
22651;BME280;11492;42.646;23.400;2023-02-28T15:05:53;95525.38;;;10.69;71.17
22651;BME280;11492;42.646;23.400;2023-02-28T15:08:19;95518.28;;;10.71;70.83
22651;BME280;11492;42.646;23.400;2023-02-28T15:10:54;95530.22;;;10.72;70.96
22651;BME280;11492;42.646;23.400;2023-02-28T15:13:20;95521.19;;;10.68;70.19
22651;BME280;11492;42.646;23.400;2023-02-28T15:16:01;95526.38;;;10.60;70.86
22651;BME280;11492;42.646;23.400;2023-02-28T15:18:51;95538.19;;;10.55;71.42
22651;BME280;11492;42.646;23.400;2023-02-28T15:21:24;95537.72;;;10.51;71.97
22651;BME280;11492;42.646;23.400;2023-02-28T15:23:57;95538.03;;;10.48;72.33
22651;BME280;11492;42.646;23.400;2023-02-28T15:26:25;95533.81;;;10.55;72.65
22651;BME280;11492;42.646;23.400;2023-02-28T15:28:58;95537.41;;;10.46;72.79
22651;BME280;11492;42.646;23.400;2023-02-28T15:31:32;95545.28;;;10.45;72.38